Time,TemperatureF,DewpointF,PressureIn,WindDirection,WindDirectionDegrees,WindSpeedMPH,WindSpeedGustMPH,Humidity,HourlyPrecipIn,Conditions,Clouds,dailyrainin,SoftwareType,DateUTC
2013-07-27 00:12:00,69.0,62.0,-100.00,SW,220,9.0,22.0,80,0.00,,,-99.99,,2013-07-27 04:12:00,
2013-07-27 00:22:00,68.0,63.0,-100.00,SW,220,7.0,12.0,86,0.00,,,-99.99,,2013-07-27 04:22:00,
2013-07-27 00:32:00,66.0,64.0,-100.00,SW,215,9.0,14.0,93,6.22,,,-99.99,,2013-07-27 04:32:00,
2013-07-27 00:43:00,65.0,65.0,-100.00,SW,230,5.0,7.0,99,0.00,,,-99.99,,2013-07-27 04:43:00,
2013-07-27 01:12:00,65.0,-99.9,-100.00,SSW,210,7.0,13.0,-999,0.00,,,-99.99,,2013-07-27 05:12:00,
2013-07-27 01:22:00,65.0,-99.9,-100.00,SSW,205,3.0,7.0,-999,0.00,,,-99.99,,2013-07-27 05:22:00,
2013-07-27 01:33:00,65.0,-99.9,-100.00,South,175,3.0,4.0,-999,0.00,,,-99.99,,2013-07-27 05:33:00,
2013-07-27 01:43:00,65.0,-99.9,-100.00,SSE,165,3.0,4.0,-999,0.00,,,-99.99,,2013-07-27 05:43:00,
2013-07-27 02:12:00,65.0,-99.9,-100.00,SSE,160,4.0,6.0,-999,0.00,,,-99.99,,2013-07-27 06:12:00,
2013-07-27 02:22:00,65.0,-99.9,-100.00,SSE,165,4.0,7.0,-999,0.00,,,-99.99,,2013-07-27 06:22:00,
2013-07-27 02:33:00,65.0,-99.9,-100.00,SSE,165,4.0,7.0,-999,0.00,,,-99.99,,2013-07-27 06:33:00,
2013-07-27 02:43:00,65.0,-99.9,-100.00,South,170,6.0,9.0,-999,0.00,,,-99.99,,2013-07-27 06:43:00,
2013-07-27 03:02:00,65.0,-99.9,-100.00,South,175,5.0,9.0,-999,0.00,,,-99.99,,2013-07-27 07:02:00,
2013-07-27 03:53:00,65.0,-99.9,-100.00,South,180,3.0,6.0,-999,0.00,,,-99.99,,2013-07-27 07:53:00,
2013-07-27 04:02:00,65.0,-99.9,-100.00,South,175,4.0,7.0,-999,0.00,,,-99.99,,2013-07-27 08:02:00,
2013-07-27 04:12:00,65.0,-99.9,-100.00,South,170,4.0,7.0,-999,0.00,,,-99.99,,2013-07-27 08:12:00,
2013-07-27 04:22:00,65.0,-99.9,-100.00,South,175,4.0,6.0,-999,0.00,,,-99.99,,2013-07-27 08:22:00,
2013-07-27 04:32:00,65.0,-99.9,-100.00,South,175,5.0,8.0,-999,0.00,,,-99.99,,2013-07-27 08:32:00,
2013-07-27 04:43:00,65.0,-99.9,-100.00,South,180,4.0,7.0,-999,0.00,,,-99.99,,2013-07-27 08:43:00,
2013-07-27 04:53:00,65.0,-99.9,-100.00,South,180,6.0,9.0,-999,0.00,,,-99.99,,2013-07-27 08:53:00,
2013-07-27 05:02:00,65.0,-99.9,-100.00,South,180,6.0,9.0,-999,0.00,,,-99.99,,2013-07-27 09:02:00,
2013-07-27 05:12:00,65.0,-99.9,-100.00,South,180,4.0,7.0,-999,0.00,,,-99.99,,2013-07-27 09:12:00,
2013-07-27 05:22:00,65.0,-99.9,-100.00,South,180,4.0,9.0,-999,0.00,,,-99.99,,2013-07-27 09:22:00,
2013-07-27 05:33:00,65.0,-99.9,-100.00,South,180,4.0,7.0,-999,0.00,,,-99.99,,2013-07-27 09:33:00,
2013-07-27 05:44:00,65.0,-99.9,-100.00,South,180,5.0,9.0,-999,0.00,,,-99.99,,2013-07-27 09:44:00,
2013-07-27 05:52:00,65.0,-99.9,-100.00,South,175,6.0,6.0,-999,0.00,,,-99.99,,2013-07-27 09:52:00,
2013-07-27 06:02:00,65.0,-99.9,-100.00,South,175,4.0,7.0,-999,0.00,,,-99.99,,2013-07-27 10:02:00,
2013-07-27 06:22:00,65.0,-99.9,-100.00,South,180,4.0,7.0,-999,0.00,,,-99.99,,2013-07-27 10:22:00,
2013-07-27 06:32:00,65.0,-99.9,-100.00,South,180,4.0,7.0,-999,0.00,,,-99.99,,2013-07-27 10:32:00,
2013-07-27 06:52:00,65.0,-99.9,-100.00,South,175,4.0,7.0,-999,0.00,,,-99.99,,2013-07-27 10:52:00,
2013-07-27 07:22:00,65.0,-99.9,-100.00,South,180,4.0,7.0,-999,0.00,,,-99.99,,2013-07-27 11:22:00,
2013-07-27 08:03:00,65.0,-99.9,-100.00,South,175,5.0,7.0,-999,0.55,,,-99.99,,2013-07-27 12:03:00,
2013-07-27 08:43:00,66.0,-99.9,-100.00,South,175,6.0,9.0,-999,0.00,,,-99.99,,2013-07-27 12:43:00,
2013-07-27 08:52:00,66.0,-99.9,-100.00,South,175,6.0,9.0,-999,0.00,,,-99.99,,2013-07-27 12:52:00,
2013-07-27 09:02:00,67.0,-99.9,-100.00,South,175,4.0,9.0,-999,0.00,,,-99.99,,2013-07-27 13:02:00,
2013-07-27 09:12:00,67.0,-99.9,-100.00,South,185,6.0,9.0,-999,0.00,,,-99.99,,2013-07-27 13:12:00,
2013-07-27 09:22:00,67.0,-99.9,-100.00,South,185,6.0,8.0,-999,0.00,,,-99.99,,2013-07-27 13:22:00,
2013-07-27 09:32:00,67.0,-99.9,-100.00,SSW,195,4.0,10.0,-999,0.00,,,-99.99,,2013-07-27 13:32:00,
2013-07-27 09:44:00,67.0,-99.9,-100.00,South,190,4.0,7.0,-999,0.00,,,-99.99,,2013-07-27 13:44:00,
2013-07-27 10:12:00,68.0,-99.9,-100.00,South,180,6.0,8.0,-999,0.00,,,-99.99,,2013-07-27 14:12:00,
2013-07-27 10:22:00,68.0,-99.9,-100.00,South,180,6.0,8.0,-999,0.00,,,-99.99,,2013-07-27 14:22:00,
2013-07-27 10:33:00,68.0,-99.9,-100.00,SSW,205,6.0,9.0,-999,0.00,,,-99.99,,2013-07-27 14:33:00,
2013-07-27 10:44:00,69.0,69.0,-100.00,SW,225,8.0,11.0,99,0.00,,,-99.99,,2013-07-27 14:44:00,
2013-07-27 11:33:00,72.0,68.0,-100.00,SW,215,4.0,8.0,86,0.00,,,-99.99,,2013-07-27 15:33:00,
2013-07-27 11:44:00,72.0,68.0,-100.00,SW,215,6.0,8.0,85,0.00,,,-99.99,,2013-07-27 15:44:00,
2013-07-27 11:53:00,72.0,67.0,-100.00,SW,220,9.0,12.0,83,0.00,,,-99.99,,2013-07-27 15:53:00,
2013-07-27 12:02:00,72.0,66.0,-100.00,SW,225,5.0,13.0,81,0.00,,,-99.99,,2013-07-27 16:02:00,
2013-07-27 12:12:00,73.0,66.0,-100.00,SW,230,8.0,12.0,78,0.00,,,-99.99,,2013-07-27 16:12:00,
2013-07-27 12:23:00,73.0,66.0,-100.00,SW,230,8.0,12.0,78,0.00,,,-99.99,,2013-07-27 16:23:00,
2013-07-27 12:33:00,69.0,65.0,-100.00,SW,230,1.0,7.0,90,0.00,,,-99.99,,2013-07-27 16:33:00,
2013-07-27 12:43:00,72.0,68.0,-100.00,SSW,200,2.0,4.0,89,0.00,,,-99.99,,2013-07-27 16:43:00,
2013-07-27 12:53:00,73.0,67.0,-100.00,WSW,245,9.0,12.0,82,0.00,,,-99.99,,2013-07-27 16:53:00,
2013-07-27 13:02:00,73.0,67.0,-100.00,WSW,245,9.0,12.0,82,0.00,,,-99.99,,2013-07-27 17:02:00,
2013-07-27 13:12:00,74.0,68.0,-100.00,WSW,255,4.0,10.0,80,0.00,,,-99.99,,2013-07-27 17:12:00,
2013-07-27 13:22:00,74.0,63.0,-100.00,SW,230,9.0,15.0,68,0.00,,,-99.99,,2013-07-27 17:22:00,
2013-07-27 13:32:00,76.0,63.0,-100.00,SW,230,7.0,13.0,64,0.00,,,-99.99,,2013-07-27 17:32:00,
2013-07-27 13:43:00,76.0,61.0,-100.00,SW,235,8.0,17.0,59,0.00,,,-99.99,,2013-07-27 17:43:00,
2013-07-27 13:53:00,77.0,60.0,-100.00,SW,215,13.0,18.0,56,0.00,,,-99.99,,2013-07-27 17:53:00,
2013-07-27 14:03:00,77.0,60.0,-100.00,SW,215,13.0,18.0,56,0.00,,,-99.99,,2013-07-27 18:03:00,
2013-07-27 14:12:00,75.0,61.0,-100.00,SW,235,11.0,16.0,61,0.00,,,-99.99,,2013-07-27 18:12:00,
2013-07-27 14:22:00,76.0,60.0,-100.00,WSW,240,12.0,18.0,59,0.00,,,-99.99,,2013-07-27 18:22:00,
2013-07-27 14:33:00,77.0,60.0,-100.00,SW,215,10.0,17.0,56,0.00,,,-99.99,,2013-07-27 18:33:00,
2013-07-27 14:43:00,76.0,60.0,-100.00,WSW,240,11.0,17.0,56,0.00,,,-99.99,,2013-07-27 18:43:00,
2013-07-27 14:53:00,78.0,59.0,-100.00,SW,220,12.0,19.0,52,0.00,,,-99.99,,2013-07-27 18:53:00,
2013-07-27 15:02:00,76.0,60.0,-100.00,WSW,240,11.0,17.0,58,0.00,,,-99.99,,2013-07-27 19:02:00,
2013-07-27 15:12:00,77.0,57.0,-100.00,SW,230,11.0,17.0,50,0.00,,,-99.99,,2013-07-27 19:12:00,
2013-07-27 15:23:00,77.0,57.0,-100.00,SW,230,11.0,17.0,50,0.00,,,-99.99,,2013-07-27 19:23:00,
2013-07-27 15:32:00,76.0,57.0,-100.00,SW,235,14.0,22.0,51,0.00,,,-99.99,,2013-07-27 19:32:00,
2013-07-27 15:43:00,72.0,61.0,-100.00,WSW,250,17.0,26.0,67,0.00,,,-99.99,,2013-07-27 19:43:00,
2013-07-27 15:53:00,73.0,61.0,-100.00,WSW,245,14.0,24.0,64,0.00,,,-99.99,,2013-07-27 19:53:00,
2013-07-27 16:02:00,74.0,60.0,-100.00,WSW,240,15.0,23.0,62,0.00,,,-99.99,,2013-07-27 20:02:00,
2013-07-27 16:12:00,74.0,60.0,-100.00,WSW,240,15.0,23.0,62,0.00,,,-99.99,,2013-07-27 20:12:00,
2013-07-27 16:23:00,73.0,61.0,-100.00,WSW,250,11.0,21.0,65,0.00,,,-99.99,,2013-07-27 20:23:00,
2013-07-27 16:32:00,74.0,60.0,-100.00,WSW,240,12.0,21.0,62,0.00,,,-99.99,,2013-07-27 20:32:00,
2013-07-27 16:43:00,74.0,59.0,-100.00,WSW,245,16.0,23.0,59,0.00,,,-99.99,,2013-07-27 20:43:00,
2013-07-27 16:52:00,70.0,63.0,-100.00,WSW,255,18.0,29.0,77,0.00,,,-99.99,,2013-07-27 20:52:00,
2013-07-27 17:03:00,71.0,63.0,-100.00,WSW,245,13.0,22.0,77,0.00,,,-99.99,,2013-07-27 21:03:00,
2013-07-27 17:12:00,71.0,62.0,-100.00,WSW,240,12.0,19.0,74,0.00,,,-99.99,,2013-07-27 21:12:00,
2013-07-27 17:23:00,71.0,60.0,-100.00,WSW,250,12.0,18.0,68,0.00,,,-99.99,,2013-07-27 21:23:00,
2013-07-27 17:33:00,72.0,59.0,-100.00,WSW,240,12.0,25.0,63,0.00,,,-99.99,,2013-07-27 21:33:00,
2013-07-27 17:43:00,70.0,58.0,-100.00,WSW,250,16.0,21.0,66,0.00,,,-99.99,,2013-07-27 21:43:00,
2013-07-27 17:52:00,69.0,60.0,-100.00,WSW,250,17.0,25.0,72,0.00,,,-99.99,,2013-07-27 21:52:00,
2013-07-27 18:02:00,68.0,60.0,-100.00,WSW,250,12.0,22.0,74,0.00,,,-99.99,,2013-07-27 22:02:00,
2013-07-27 18:12:00,68.0,60.0,-100.00,WSW,255,11.0,21.0,77,0.00,,,-99.99,,2013-07-27 22:12:00,
2013-07-27 18:22:00,67.0,60.0,-100.00,WSW,255,13.0,19.0,77,0.00,,,-99.99,,2013-07-27 22:22:00,
2013-07-27 18:33:00,67.0,58.0,-100.00,WSW,255,15.0,20.0,74,0.00,,,-99.99,,2013-07-27 22:33:00,
2013-07-27 18:43:00,67.0,58.0,-100.00,WSW,255,15.0,20.0,74,0.00,,,-99.99,,2013-07-27 22:43:00,
2013-07-27 18:53:00,66.0,58.0,-100.00,WSW,250,14.0,25.0,74,0.00,,,-99.99,,2013-07-27 22:53:00,
2013-07-27 19:02:00,65.0,57.0,-100.00,WSW,255,13.0,21.0,75,0.00,,,-99.99,,2013-07-27 23:02:00,
2013-07-27 19:12:00,65.0,57.0,-100.00,WSW,255,17.0,22.0,74,0.00,,,-99.99,,2013-07-27 23:12:00,
2013-07-27 19:22:00,65.0,57.0,-100.00,WSW,255,17.0,22.0,74,0.00,,,-99.99,,2013-07-27 23:22:00,
2013-07-27 19:32:00,64.0,56.0,-100.00,West,260,18.0,23.0,74,0.00,,,-99.99,,2013-07-27 23:32:00,
2013-07-27 19:44:00,64.0,56.0,-100.00,WSW,255,12.0,18.0,76,0.00,,,-99.99,,2013-07-27 23:44:00,
2013-07-27 19:52:00,64.0,56.0,-100.00,West,265,12.0,18.0,76,0.00,,,-99.99,,2013-07-27 23:52:00,
2013-07-27 20:02:00,63.0,55.0,-100.00,WSW,245,10.0,19.0,76,0.00,,,-99.99,,2013-07-28 00:02:00,
2013-07-27 20:12:00,62.0,56.0,-100.00,WSW,255,8.0,15.0,77,0.00,,,-99.99,,2013-07-28 00:12:00,
2013-07-27 20:22:00,62.0,56.0,-100.00,WSW,255,8.0,15.0,77,0.00,,,-99.99,,2013-07-28 00:22:00,
2013-07-27 20:32:00,62.0,55.0,-100.00,WSW,245,8.0,12.0,78,0.00,,,-99.99,,2013-07-28 00:32:00,
2013-07-27 20:44:00,62.0,55.0,-100.00,West,260,12.0,21.0,76,0.00,,,-99.99,,2013-07-28 00:44:00,
2013-07-27 20:53:00,62.0,54.0,-100.00,West,260,11.0,19.0,75,0.00,,,-99.99,,2013-07-28 00:53:00,
2013-07-27 21:02:00,61.0,54.0,-100.00,West,265,8.0,14.0,77,0.00,,,-99.99,,2013-07-28 01:02:00,
2013-07-27 21:12:00,60.0,54.0,-100.00,West,260,7.0,12.0,80,0.00,,,-99.99,,2013-07-28 01:12:00,
2013-07-27 21:22:00,59.0,54.0,-100.00,WSW,255,6.0,11.0,83,0.00,,,-99.99,,2013-07-28 01:22:00,
2013-07-27 21:32:00,59.0,54.0,-100.00,WSW,250,4.0,9.0,85,0.00,,,-99.99,,2013-07-28 01:32:00,
2013-07-27 21:43:00,59.0,54.0,-100.00,WSW,250,4.0,9.0,85,0.00,,,-99.99,,2013-07-28 01:43:00,
2013-07-27 21:53:00,59.0,54.0,-100.00,WSW,250,4.0,9.0,85,0.00,,,-99.99,,2013-07-28 01:53:00,
2013-07-27 22:03:00,57.0,54.0,-100.00,WSW,240,4.0,6.0,90,0.00,,,-99.99,,2013-07-28 02:03:00,
2013-07-27 22:12:00,57.0,55.0,-100.00,WSW,240,4.0,5.0,92,0.00,,,-99.99,,2013-07-28 02:12:00,
2013-07-27 22:22:00,56.0,54.0,-100.00,SW,235,3.0,4.0,92,0.00,,,-99.99,,2013-07-28 02:22:00,
2013-07-27 22:32:00,56.0,54.0,-100.00,WSW,240,3.0,4.0,93,0.00,,,-99.99,,2013-07-28 02:32:00,
2013-07-27 22:42:00,56.0,54.0,-100.00,SW,235,3.0,6.0,94,0.00,,,-99.99,,2013-07-28 02:42:00,
2013-07-27 22:53:00,55.0,54.0,-100.00,SW,235,3.0,4.0,95,0.00,,,-99.99,,2013-07-28 02:53:00,
2013-07-27 23:03:00,55.0,54.0,-100.00,WSW,250,2.0,5.0,96,0.00,,,-99.99,,2013-07-28 03:03:00,
2013-07-27 23:12:00,55.0,54.0,-100.00,WSW,250,4.0,6.0,96,0.00,,,-99.99,,2013-07-28 03:12:00,
2013-07-27 23:22:00,55.0,54.0,-100.00,WSW,250,4.0,7.0,96,0.00,,,-99.99,,2013-07-28 03:22:00,
2013-07-27 23:32:00,55.0,54.0,-100.00,WSW,240,4.0,7.0,96,0.00,,,-99.99,,2013-07-28 03:32:00,
2013-07-27 23:42:00,56.0,54.0,-100.00,SW,230,4.0,6.0,95,0.00,,,-99.99,,2013-07-28 03:42:00,
2013-07-27 23:53:00,55.0,54.0,-100.00,SW,235,4.0,6.0,93,0.00,,,-99.99,,2013-07-28 03:53:00,